Hlavní strana
METAR-TAF:

METAR-TAF

Letiště :

Ålesund, Norsko

zeměpisná šířka: 62-34N, zeměpisná délka: 006-07E, výška: 2 m

Aktuální stav počasí

Zpráva byla vytvořena před 32 minutami, v 02:50 UTC
Jihozápadní vítr 21 kt
Teplota 5°C
Vlhkost vzduchu 81%
Tlak 1011 hPa
Viditelnost 10 km a více
Skoro jasno ve výšce 300 ft
Polojasno ve výšce 1700 ft
Oblačno až skoro zataženo ve výšce 2500 ft
dešťové přeháňky

METAR: ENAL 240250Z 23021KT 9999 SHRA FEW003 SCT017 BKN025 05/02 Q1011

Čas: 04:22 (03:22 UTC)

Předpověď počasí

Zpráva byla vytvořena před 5 hodinami a 22 minutami, v 22:00 UTC
Předpověď platná od 23 v 22 UTC do 23 v 23 UTC
Západojihozápadní vítr 20 kt
Viditelnost 10 km a více
Skoro jasno ve výšce 1500 ft, Vertikální cumulus.
Polojasno ve výšce 3000 ft
slabé dešťové přeháňky

TAF: ENAL 232200Z 2322/2323 24020KT 9999 -SHRA FEW015TCU SCT030

Stav a předpovědi počasí z více než 4 000 letišť (zprávy METAR a TAF).

Červené a žluté tečky na mapě představují dostupné meteorologické stanice.

Když kurzor umístíte na tečku, zobrazí se název stanice.

Pak kliknutím zobrazíte stav a předpověď počasí.

Chcete-li změnit mapu, kliknutím na zelené tlačítko se znaménkem +mapu přiblížíte, kliknutím na zelené tlačítko se znaménkem – mapu oddálíte a kliknutím na zelené šipky přejdete na sousední mapy.


METAR-TAF: